Time;durP1;ratioP1;P1;durP2;ratioP2;P2;SDS_P1;SDS_P2;PMS_P1;PMS_P2;Temp;Humidity;BMP_temperature;BMP_pressure;BME280_temperature;BME280_humidity;BME280_pressure;Samples;Min_cycle;Max_cycle;Signal;HPM_P1;HPM_P2
2021/12/29 00:01:09;;;;;;;0.10;0.10;;;6.20;99.90;;;;;;5077343;28;20363;-60
2021/12/29 00:03:35;;;;;;;;;;;6.20;99.90;;;;;;5074002;28;20116;-59
2021/12/29 00:06:00;;;;;;;0.10;0.10;;;6.20;99.90;;;;;;5073597;28;20078;-60
2021/12/29 00:08:26;;;;;;;0.30;0.10;;;6.20;99.90;;;;;;5082719;28;20063;-61
2021/12/29 00:10:55;;;;;;;0.17;0.10;;;6.20;99.90;;;;;;5073859;28;20032;-60
2021/12/29 00:13:22;;;;;;;0.47;0.20;;;6.20;99.90;;;;;;5078841;28;20052;-60
2021/12/29 00:15:48;;;;;;;0.52;0.20;;;6.30;99.90;;;;;;5076317;28;20056;-59
2021/12/29 00:18:15;;;;;;;0.30;0.10;;;6.30;99.90;;;;;;5073421;28;20129;-60
2021/12/29 00:20:40;;;;;;;0.20;0.20;;;6.30;99.90;;;;;;5061138;28;20041;-61
2021/12/29 00:23:07;;;;;;;1.00;0.15;;;6.30;99.90;;;;;;5066822;28;20615;-61
2021/12/29 00:25:33;;;;;;;0.20;0.10;;;6.30;99.90;;;;;;5062394;28;20098;-58
2021/12/29 00:28:01;;;;;;;0.25;0.10;;;6.30;99.90;;;;;;5059667;28;20112;-61
2021/12/29 00:30:28;;;;;;;0.55;0.20;;;6.30;99.90;;;;;;5059405;28;20044;-60
2021/12/29 00:32:53;;;;;;;0.10;0.10;;;6.40;99.90;;;;;;5060440;28;20144;-58
2021/12/29 00:35:19;;;;;;;0.22;0.20;;;6.40;99.90;;;;;;5058512;28;20120;-61
2021/12/29 00:37:45;;;;;;;0.55;0.20;;;6.40;99.90;;;;;;5060016;28;20048;-59
2021/12/29 00:40:10;;;;;;;;;;;6.40;99.90;;;;;;5061050;28;20468;-61
2021/12/29 00:42:36;;;;;;;0.20;0.20;;;6.50;99.90;;;;;;5060488;28;19969;-61
2021/12/29 00:45:02;;;;;;;;;;;6.50;99.90;;;;;;5059249;28;20043;-61
2021/12/29 00:47:31;;;;;;;0.25;0.20;;;6.50;99.90;;;;;;5061059;28;19925;-62
2021/12/29 00:49:58;;;;;;;0.20;0.20;;;6.50;99.90;;;;;;5066029;28;20063;-61
2021/12/29 00:52:24;;;;;;;0.50;0.30;;;6.50;99.90;;;;;;5064560;28;20532;-60
2021/12/29 00:54:50;;;;;;;0.20;0.20;;;6.50;99.90;;;;;;5055417;28;20116;-60
2021/12/29 00:57:15;;;;;;;;;;;6.60;99.90;;;;;;5065365;28;20040;-61
2021/12/29 00:59:41;;;;;;;0.30;0.30;;;6.60;99.90;;;;;;5062706;28;20426;-59
2021/12/29 01:02:07;;;;;;;;;;;6.60;99.90;;;;;;5062139;28;20064;-61
2021/12/29 01:04:32;;;;;;;0.30;0.30;;;6.60;99.90;;;;;;5054403;28;19916;-61
2021/12/29 01:06:58;;;;;;;0.70;0.60;;;6.60;99.90;;;;;;5065914;28;20458;-60
2021/12/29 01:09:23;;;;;;;0.52;0.43;;;6.60;99.90;;;;;;5061624;28;20048;-60
2021/12/29 01:11:49;;;;;;;0.68;0.50;;;6.60;99.90;;;;;;5061106;28;20048;-60
2021/12/29 01:14:21;;;;;;;;;;;6.60;99.90;;;;;;5066624;28;20591;-60
2021/12/29 01:16:47;;;;;;;0.57;0.43;;;6.60;99.90;;;;;;5066435;28;19920;-60
2021/12/29 01:19:20;;;;;;;0.35;0.35;;;6.60;99.90;;;;;;5085296;28;20147;-61
2021/12/29 01:21:50;;;;;;;0.55;0.40;;;6.70;99.90;;;;;;5066039;28;20048;-59
2021/12/29 01:24:16;;;;;;;0.70;0.55;;;6.70;99.90;;;;;;5060487;28;20488;-60
2021/12/29 01:26:43;;;;;;;0.40;0.30;;;6.70;99.90;;;;;;5066583;28;20040;-60
2021/12/29 01:29:13;;;;;;;0.30;0.30;;;6.70;99.90;;;;;;5058837;28;20133;-63
2021/12/29 01:31:40;;;;;;;0.70;0.60;;;6.70;99.90;;;;;;5061395;28;20032;-60
2021/12/29 01:34:06;;;;;;;0.57;0.50;;;6.70;99.90;;;;;;5056208;28;20063;-60
2021/12/29 01:36:34;;;;;;;0.50;0.50;;;6.70;99.90;;;;;;5055405;28;20052;-61
2021/12/29 01:39:01;;;;;;;0.60;0.38;;;6.70;99.90;;;;;;5052147;28;20033;-61
2021/12/29 01:41:26;;;;;;;0.50;0.50;;;6.70;99.90;;;;;;5057172;28;20048;-60
2021/12/29 01:43:52;;;;;;;0.70;0.70;;;6.70;99.90;;;;;;5064590;28;20086;-58
2021/12/29 01:46:18;;;;;;;;;;;6.70;99.90;;;;;;5061284;28;20417;-61
2021/12/29 01:48:44;;;;;;;1.00;0.88;;;6.70;99.90;;;;;;5060803;28;19917;-60
2021/12/29 01:51:11;;;;;;;1.20;1.10;;;6.70;99.90;;;;;;5058309;28;20041;-60
2021/12/29 01:53:46;;;;;;;1.35;1.10;;;6.70;99.90;;;;;;5062542;28;20090;-61
2021/12/29 01:56:12;;;;;;;3.13;1.40;;;6.70;99.90;;;;;;5062662;28;20068;-59
2021/12/29 01:58:37;;;;;;;4.20;1.85;;;6.70;99.90;;;;;;5065138;28;20036;-61
2021/12/29 02:01:04;;;;;;;2.20;2.00;;;6.80;99.90;;;;;;5056333;28;20115;-60
2021/12/29 02:03:30;;;;;;;2.78;1.95;;;6.70;99.90;;;;;;5060141;28;20051;-61
2021/12/29 02:05:55;;;;;;;2.08;1.88;;;6.70;99.90;;;;;;5059401;28;20033;-60
2021/12/29 02:08:23;;;;;;;;;;;6.80;99.90;;;;;;5066873;28;20451;-61
2021/12/29 02:10:50;;;;;;;2.90;2.22;;;6.80;99.90;;;;;;5056586;28;19916;-60
2021/12/29 02:13:16;;;;;;;2.70;1.90;;;6.70;99.90;;;;;;5066455;28;20047;-60
2021/12/29 02:15:42;;;;;;;2.42;1.90;;;6.70;99.90;;;;;;5070920;28;20032;-61
2021/12/29 02:18:14;;;;;;;2.25;1.88;;;6.70;99.90;;;;;;5076835;28;20028;-61
2021/12/29 02:20:42;;;;;;;1.83;1.58;;;6.70;99.90;;;;;;5068276;28;20048;-60
2021/12/29 02:23:16;;;;;;;4.03;1.65;;;6.70;99.90;;;;;;5072720;28;20032;-60
2021/12/29 02:25:49;;;;;;;1.90;1.58;;;6.70;99.90;;;;;;5070609;28;20076;-60
2021/12/29 02:28:17;;;;;;;3.00;1.30;;;6.60;99.90;;;;;;5067908;28;20044;-59
2021/12/29 02:30:45;;;;;;;1.90;1.20;;;6.60;99.90;;;;;;5062439;28;20377;-59
2021/12/29 02:33:13;;;;;;;1.40;1.08;;;6.60;99.90;;;;;;5070651;28;20040;-61
2021/12/29 02:35:41;;;;;;;1.38;1.20;;;6.60;99.90;;;;;;5069026;28;20044;-60
2021/12/29 02:38:10;;;;;;;1.30;0.98;;;6.60;99.90;;;;;;5070439;28;20119;-59
2021/12/29 02:40:37;;;;;;;1.42;0.85;;;6.60;99.90;;;;;;5064113;28;20495;-60
2021/12/29 02:43:02;;;;;;;0.80;0.80;;;6.60;99.90;;;;;;5071918;28;20036;-59
2021/12/29 02:45:32;;;;;;;0.73;0.73;;;6.60;99.90;;;;;;5068614;28;20046;-60
2021/12/29 02:47:58;;;;;;;1.95;0.80;;;6.60;99.90;;;;;;5076882;28;20045;-61
2021/12/29 02:50:23;;;;;;;0.50;0.50;;;6.60;99.90;;;;;;5068829;28;20120;-57
2021/12/29 02:52:49;;;;;;;1.25;0.70;;;6.60;99.90;;;;;;5065428;28;20064;-66
2021/12/29 02:55:15;;;;;;;;;;;6.60;99.90;;;;;;5071865;28;20089;-57
2021/12/29 02:57:41;;;;;;;0.50;0.43;;;6.60;99.90;;;;;;5073511;28;20466;-61
2021/12/29 03:00:10;;;;;;;0.75;0.65;;;6.60;99.90;;;;;;5065192;28;20043;-60
2021/12/29 03:02:36;;;;;;;0.70;0.60;;;6.60;99.90;;;;;;5069960;28;20045;-61
2021/12/29 03:05:02;;;;;;;0.77;0.77;;;6.60;99.90;;;;;;5065038;28;20035;-62
2021/12/29 03:07:28;;;;;;;0.50;0.50;;;6.60;99.90;;;;;;5072619;28;20446;-60
2021/12/29 03:09:53;;;;;;;;;;;6.60;99.90;;;;;;5069238;28;20089;-59
2021/12/29 03:12:19;;;;;;;0.68;0.55;;;6.60;99.90;;;;;;5072236;28;19954;-60
2021/12/29 03:14:56;;;;;;;0.80;0.60;;;6.60;99.90;;;;;;5069510;28;20040;-61
2021/12/29 03:17:23;;;;;;;0.63;0.50;;;6.60;99.90;;;;;;5064751;28;20522;-59
2021/12/29 03:19:48;;;;;;;0.82;0.60;;;6.70;99.90;;;;;;5069184;28;20101;-60
2021/12/29 03:22:14;;;;;;;0.47;0.47;;;6.70;99.90;;;;;;5068039;28;20047;-61
2021/12/29 03:24:40;;;;;;;;;;;6.60;99.90;;;;;;5071657;28;20047;-60
2021/12/29 03:27:06;;;;;;;0.80;0.70;;;6.60;99.90;;;;;;5060360;28;19921;-61
2021/12/29 03:29:31;;;;;;;0.65;0.65;;;6.60;99.90;;;;;;5060962;28;20143;-59
2021/12/29 03:31:59;;;;;;;0.52;0.52;;;6.60;99.90;;;;;;5063401;28;20044;-55
2021/12/29 03:34:25;;;;;;;1.23;0.80;;;6.60;99.90;;;;;;5068051;28;20051;-58
2021/12/29 03:36:50;;;;;;;0.70;0.50;;;6.60;99.90;;;;;;5070627;28;20044;-60
2021/12/29 03:39:17;;;;;;;0.50;0.50;;;6.60;99.90;;;;;;5065787;28;20047;-61
2021/12/29 03:41:43;;;;;;;0.65;0.63;;;6.60;99.90;;;;;;5066600;28;20122;-60
2021/12/29 03:44:08;;;;;;;;;;;6.60;99.90;;;;;;5074251;28;20036;-59
2021/12/29 03:46:36;;;;;;;0.60;0.50;;;6.60;99.90;;;;;;5066633;28;19957;-61
2021/12/29 03:49:02;;;;;;;0.82;0.60;;;6.60;99.90;;;;;;5073014;28;20189;-58
2021/12/29 03:51:27;;;;;;;0.80;0.50;;;6.60;99.90;;;;;;5063894;28;20123;-59
2021/12/29 03:53:53;;;;;;;;;;;6.60;99.90;;;;;;5074135;28;20106;-60
2021/12/29 03:56:19;;;;;;;1.45;0.50;;;6.60;99.90;;;;;;5069030;28;19917;-60
2021/12/29 03:58:44;;;;;;;;;;;6.60;99.90;;;;;;5075921;28;20037;-59
2021/12/29 04:01:12;;;;;;;0.30;0.30;;;6.60;99.90;;;;;;5068777;28;19923;-59
2021/12/29 04:03:38;;;;;;;0.50;0.43;;;6.60;99.90;;;;;;5072646;28;20044;-59
2021/12/29 04:06:04;;;;;;;0.60;0.40;;;6.60;99.90;;;;;;5066961;28;20102;-59
2021/12/29 04:08:31;;;;;;;2.40;0.40;;;6.60;99.90;;;;;;5071456;28;20119;-58
2021/12/29 04:10:57;;;;;;;0.60;0.57;;;6.60;99.90;;;;;;5066582;28;20089;-61
2021/12/29 04:13:22;;;;;;;0.50;0.43;;;6.60;99.90;;;;;;5078581;28;20470;-60
2021/12/29 04:15:48;;;;;;;0.47;0.40;;;6.60;99.90;;;;;;5069536;28;20807;-61
2021/12/29 04:18:26;;;;;;;;;;;6.60;99.90;;;;;;5076425;28;20036;-60
2021/12/29 04:20:55;;;;;;;;;;;6.60;99.90;;;;;;5064386;28;20435;-59
2021/12/29 04:23:21;;;;;;;;;;;6.60;99.90;;;;;;5074337;28;19916;-59
2021/12/29 04:25:49;;;;;;;;;;;6.60;99.90;;;;;;5071336;28;20023;-58
2021/12/29 04:28:20;;;;;;;;;;;6.60;99.90;;;;;;5078342;28;20478;-58
2021/12/29 04:31:07;;;;;;;;;;;6.60;99.90;;;;;;5071930;28;20298;-58
2021/12/29 04:33:33;;;;;;;;;;;6.70;99.90;;;;;;5075220;28;19961;-59
2021/12/29 04:35:58;;;;;;;;;;;6.70;99.90;;;;;;5070718;28;19916;-58
2021/12/29 04:38:24;;;;;;;;;;;6.60;99.90;;;;;;5079042;28;20353;-60
2021/12/29 04:40:51;;;;;;;;;;;6.60;99.90;;;;;;5068351;28;19925;-57
2021/12/29 04:43:17;;;;;;;;;;;6.60;99.90;;;;;;5075715;28;19950;-59
2021/12/29 04:45:43;;;;;;;;;;;6.60;99.90;;;;;;5071906;28;19958;-60
2021/12/29 04:48:14;;;;;;;;;;;6.70;99.90;;;;;;5074197;28;19970;-60
2021/12/29 04:50:41;;;;;;;;;;;6.70;99.90;;;;;;5072458;28;19946;-59
2021/12/29 04:53:08;;;;;;;;;;;6.70;99.90;;;;;;5072200;28;19924;-59
2021/12/29 04:55:34;;;;;;;;;;;6.70;99.90;;;;;;5060912;28;19927;-59
2021/12/29 04:57:59;;;;;;;;;;;6.70;99.90;;;;;;5075066;28;19916;-60
2021/12/29 05:00:26;;;;;;;;;;;6.70;99.90;;;;;;5067286;28;19924;-61
2021/12/29 05:02:52;;;;;;;;;;;6.70;99.90;;;;;;5073346;28;19920;-62
2021/12/29 05:05:22;;;;;;;;;;;6.70;99.90;;;;;;5065518;28;19923;-57
2021/12/29 05:10:33;;;;;;;;;;;6.70;99.90;;;;;;5069588;28;19938;-60
2021/12/29 05:12:58;;;;;;;;;;;6.70;99.90;;;;;;5069199;28;20420;-59
2021/12/29 05:15:24;;;;;;;;;;;6.70;99.90;;;;;;5072705;28;19999;-61
2021/12/29 05:17:50;;;;;;;;;;;6.70;99.90;;;;;;5075172;28;19920;-61
2021/12/29 05:20:15;;;;;;;;;;;6.70;99.90;;;;;;5072071;28;19923;-58
2021/12/29 05:22:41;;;;;;;;;;;6.70;99.90;;;;;;5071696;28;19915;-61
2021/12/29 05:25:06;;;;;;;;;;;6.70;99.90;;;;;;5075682;28;20517;-59
2021/12/29 05:27:32;;;;;;;;;;;6.70;99.90;;;;;;5074886;28;20338;-59
2021/12/29 05:30:02;;;;;;;;;;;6.60;99.90;;;;;;5071114;28;19975;-59
2021/12/29 05:32:30;;;;;;;;;;;6.60;99.90;;;;;;5068908;28;19956;-60
2021/12/29 05:34:55;;;;;;;;;;;6.60;99.90;;;;;;5068499;28;20465;-62
2021/12/29 05:37:21;;;;;;;;;;;6.60;99.90;;;;;;5075080;28;19930;-58
2021/12/29 05:39:46;;;;;;;;;;;6.60;99.90;;;;;;5068070;28;19916;-62
2021/12/29 05:42:12;;;;;;;;;;;6.60;99.90;;;;;;5075755;28;19985;-59
2021/12/29 05:44:37;;;;;;;;;;;6.60;99.90;;;;;;5069259;28;19927;-61
2021/12/29 05:47:03;;;;;;;;;;;6.60;99.90;;;;;;5071106;28;20449;-61
2021/12/29 05:49:29;;;;;;;;;;;6.60;99.90;;;;;;5072700;28;20411;-60
2021/12/29 05:51:54;;;;;;;;;;;6.60;99.90;;;;;;5067448;28;20615;-60
2021/12/29 05:54:20;;;;;;;;;;;6.60;99.90;;;;;;5071986;28;20348;-60
2021/12/29 05:56:45;;;;;;;;;;;6.60;99.90;;;;;;5064719;28;19947;-61
2021/12/29 05:59:11;;;;;;;;;;;6.50;99.90;;;;;;5071595;28;19920;-62
2021/12/29 06:01:36;;;;;;;;;;;6.60;99.90;;;;;;5069257;28;20014;-61
2021/12/29 06:04:02;;;;;;;;;;;6.60;99.90;;;;;;5074781;28;20022;-61
2021/12/29 06:06:27;;;;;;;;;;;6.60;99.90;;;;;;5067979;28;19924;-61
2021/12/29 06:08:53;;;;;;;;;;;6.60;99.90;;;;;;5078670;28;19920;-60
2021/12/29 06:11:18;;;;;;;;;;;6.70;99.90;;;;;;5065601;28;20011;-60
2021/12/29 06:13:44;;;;;;;;;;;6.60;99.90;;;;;;5065347;28;20636;-59
2021/12/29 06:16:09;;;;;;;;;;;6.60;99.90;;;;;;5061876;28;19947;-59
2021/12/29 06:18:35;;;;;;;;;;;6.60;99.90;;;;;;5066454;28;19916;-58
2021/12/29 06:21:00;;;;;;;;;;;6.60;99.90;;;;;;5064231;28;19974;-59
2021/12/29 06:23:26;;;;;;;;;;;6.60;99.90;;;;;;5073880;28;19917;-61
2021/12/29 06:25:52;;;;;;;;;;;6.60;99.90;;;;;;5071311;28;20009;-60
2021/12/29 06:28:17;;;;;;;;;;;6.60;99.90;;;;;;5073277;28;20007;-60
2021/12/29 06:30:43;;;;;;;;;;;6.60;99.90;;;;;;5065552;28;19962;-59
2021/12/29 06:33:08;;;;;;;;;;;6.60;99.90;;;;;;5070925;28;20002;-60
2021/12/29 06:35:34;;;;;;;;;;;6.60;99.90;;;;;;5066799;28;19916;-60
2021/12/29 06:37:59;;;;;;;;;;;6.60;99.90;;;;;;5070887;28;19927;-62
2021/12/29 06:40:25;;;;;;;;;;;6.70;99.90;;;;;;5062939;28;20006;-60
2021/12/29 06:42:50;;;;;;;;;;;6.60;99.90;;;;;;5067678;28;20372;-60
2021/12/29 06:45:16;;;;;;;;;;;6.60;99.90;;;;;;5066708;28;20038;-59
2021/12/29 06:47:41;;;;;;;;;;;6.60;99.90;;;;;;5071990;28;20466;-60
2021/12/29 06:50:08;;;;;;;;;;;6.60;99.90;;;;;;5070973;28;19916;-58
2021/12/29 06:52:33;;;;;;;;;;;6.60;99.90;;;;;;5068913;28;19994;-57
2021/12/29 06:54:59;;;;;;;;;;;6.60;99.90;;;;;;5061716;28;20556;-58
2021/12/29 06:57:25;;;;;;;;;;;6.60;99.90;;;;;;5069761;28;19950;-55
2021/12/29 06:59:50;;;;;;;;;;;6.60;99.90;;;;;;5060158;28;19916;-56
2021/12/29 07:02:16;;;;;;;;;;;6.50;99.90;;;;;;5066113;28;20315;-57
2021/12/29 07:04:42;;;;;;;;;;;6.50;99.90;;;;;;5062557;28;20323;-56
2021/12/29 07:07:07;;;;;;;;;;;6.60;99.90;;;;;;5070657;28;19989;-56
2021/12/29 07:09:33;;;;;;;;;;;6.60;99.90;;;;;;5066950;28;19916;-59
2021/12/29 07:11:58;;;;;;;;;;;6.60;99.90;;;;;;5067657;28;19945;-58
2021/12/29 07:14:24;;;;;;;;;;;6.50;99.90;;;;;;5070194;28;19921;-60
2021/12/29 07:16:50;;;;;;;;;;;6.40;99.90;;;;;;5067692;28;21029;-58
2021/12/29 07:19:16;;;;;;;;;;;6.40;99.90;;;;;;5073642;28;20022;-58
2021/12/29 07:21:41;;;;;;;;;;;6.30;99.90;;;;;;5066800;28;20011;-58
2021/12/29 07:24:07;;;;;;;;;;;6.30;99.90;;;;;;5070777;28;19928;-56
2021/12/29 07:26:33;;;;;;;;;;;6.30;99.90;;;;;;5067978;28;19920;-56
2021/12/29 07:28:59;;;;;;;;;;;6.30;99.90;;;;;;5077600;28;20002;-58
2021/12/29 07:31:25;;;;;;;;;;;6.30;99.90;;;;;;5070654;28;19916;-58
2021/12/29 07:33:51;;;;;;;;;;;6.30;99.90;;;;;;5074586;28;20346;-59
2021/12/29 07:36:17;;;;;;;;;;;6.40;99.90;;;;;;5070103;28;19916;-56
2021/12/29 07:38:43;;;;;;;;;;;6.40;99.90;;;;;;5076964;28;19920;-57
2021/12/29 07:41:09;;;;;;;;;;;6.40;99.90;;;;;;5067846;28;20285;-57
2021/12/29 07:43:36;;;;;;;;;;;6.40;99.90;;;;;;5071483;28;19920;-59
2021/12/29 07:46:02;;;;;;;;;;;6.40;99.90;;;;;;5067226;28;19928;-58
2021/12/29 07:48:30;;;;;;;;;;;6.40;99.90;;;;;;5075435;28;19916;-58
2021/12/29 07:50:56;;;;;;;;;;;6.40;99.90;;;;;;5068905;28;19920;-57
2021/12/29 07:53:21;;;;;;;;;;;6.40;99.90;;;;;;5075458;28;19923;-58
2021/12/29 07:55:47;;;;;;;;;;;6.50;99.90;;;;;;5073979;28;19920;-57
2021/12/29 07:58:13;;;;;;;;;;;6.50;99.90;;;;;;5076519;28;19916;-59
2021/12/29 08:00:39;;;;;;;;;;;6.50;99.90;;;;;;5067942;28;20032;-58
2021/12/29 08:03:04;;;;;;;;;;;6.50;99.90;;;;;;5071824;28;20402;-57
2021/12/29 08:05:30;;;;;;;;;;;6.50;99.90;;;;;;5070495;28;19916;-58
2021/12/29 08:07:56;;;;;;;;;;;6.50;99.90;;;;;;5076938;28;19969;-59
2021/12/29 08:10:21;;;;;;;;;;;6.50;99.90;;;;;;5070800;28;19917;-60
2021/12/29 08:12:47;;;;;;;;;;;6.50;99.90;;;;;;5073644;28;19921;-58
2021/12/29 08:15:13;;;;;;;;;;;6.40;99.90;;;;;;5069463;28;19920;-58
2021/12/29 08:17:39;;;;;;;;;;;6.40;99.90;;;;;;5075712;28;19955;-58
2021/12/29 08:20:05;;;;;;;;;;;6.40;99.90;;;;;;5067882;28;20387;-57
2021/12/29 08:22:31;;;;;;;;;;;6.40;99.90;;;;;;5076068;28;20319;-57
2021/12/29 08:24:56;;;;;;;;;;;6.40;99.90;;;;;;5073656;28;20453;-56
2021/12/29 08:27:22;;;;;;;;;;;6.40;99.90;;;;;;5075212;28;19920;-57
2021/12/29 08:29:48;;;;;;;;;;;6.50;99.90;;;;;;5072765;28;19947;-56
2021/12/29 08:32:13;;;;;;;;;;;6.50;99.90;;;;;;5069916;28;19965;-57
2021/12/29 08:34:39;;;;;;;;;;;6.50;99.90;;;;;;5074305;28;20007;-55
2021/12/29 08:37:05;;;;;;;;;;;6.50;99.90;;;;;;5074450;28;20311;-59
2021/12/29 08:39:30;;;;;;;;;;;6.50;99.90;;;;;;5070397;28;19921;-57
2021/12/29 08:41:56;;;;;;;;;;;6.60;99.90;;;;;;5071582;28;19924;-57
2021/12/29 08:44:21;;;;;;;;;;;6.70;99.90;;;;;;5074275;28;19920;-58
2021/12/29 08:46:47;;;;;;;;;;;6.60;99.90;;;;;;5070256;28;20410;-60
2021/12/29 08:49:12;;;;;;;;;;;6.60;99.90;;;;;;5077208;28;19920;-58
2021/12/29 08:51:38;;;;;;;;;;;6.70;99.90;;;;;;5068171;28;19973;-57
2021/12/29 08:54:04;;;;;;;;;;;6.80;99.90;;;;;;5077412;28;20386;-58
2021/12/29 08:56:29;;;;;;;;;;;6.80;99.90;;;;;;5067005;28;19916;-59
2021/12/29 08:58:55;;;;;;;;;;;6.70;99.90;;;;;;5071723;28;19995;-58
2021/12/29 09:01:22;;;;;;;;;;;6.70;99.90;;;;;;5065084;28;19924;-58
2021/12/29 09:03:48;;;;;;;;;;;6.70;99.90;;;;;;5073445;28;20004;-57
2021/12/29 09:06:14;;;;;;;;;;;6.70;99.90;;;;;;5069210;28;20023;-55
2021/12/29 09:08:40;;;;;;;;;;;6.70;99.90;;;;;;5076851;28;20026;-58
2021/12/29 09:11:06;;;;;;;;;;;6.70;99.90;;;;;;5068779;28;19920;-56
2021/12/29 09:13:31;;;;;;;;;;;6.70;99.90;;;;;;5075957;28;20402;-56
2021/12/29 09:15:57;;;;;;;;;;;6.70;99.90;;;;;;5070411;28;19913;-57
2021/12/29 09:18:23;;;;;;;;;;;6.70;99.90;;;;;;5074504;28;19995;-56
2021/12/29 09:20:49;;;;;;;;;;;6.70;99.90;;;;;;5070493;28;20054;-59
2021/12/29 09:23:15;;;;;;;;;;;6.70;99.90;;;;;;5074464;28;19962;-59
2021/12/29 09:25:43;;;;;;;;;;;6.80;99.90;;;;;;5072595;28;19959;-59
2021/12/29 09:28:09;;;;;;;;;;;6.80;99.90;;;;;;5074032;28;19916;-59
2021/12/29 09:30:37;;;;;;;;;;;6.80;99.90;;;;;;5068012;28;19920;-59
2021/12/29 09:33:03;;;;;;;;;;;6.70;99.90;;;;;;5071773;28;19916;-55
2021/12/29 09:35:31;;;;;;;;;;;6.80;99.90;;;;;;5065389;28;20296;-58
2021/12/29 09:37:56;;;;;;;;;;;6.80;99.90;;;;;;5087251;28;20410;-58
2021/12/29 09:40:23;;;;;;;;;;;6.80;99.90;;;;;;5067342;28;19952;-53
2021/12/29 09:42:50;;;;;;;;;;;6.80;99.90;;;;;;5070651;28;19977;-57
2021/12/29 09:45:16;;;;;;;;;;;6.80;99.90;;;;;;5068192;28;19920;-59
2021/12/29 09:47:41;;;;;;;;;;;6.80;99.90;;;;;;5074396;28;19920;-56
2021/12/29 09:50:08;;;;;;;;;;;6.80;99.90;;;;;;5068895;28;20037;-56
2021/12/29 09:52:34;;;;;;;;;;;6.80;99.90;;;;;;5072188;28;19923;-55
2021/12/29 09:55:04;;;;;;;;;;;6.90;99.90;;;;;;5068428;28;20154;-57
2021/12/29 09:57:31;;;;;;;;;;;6.90;99.90;;;;;;5069942;28;19915;-58
2021/12/29 09:59:57;;;;;;;;;;;6.90;99.90;;;;;;5064671;28;19927;-59
2021/12/29 10:02:22;;;;;;;;;;;7.00;99.90;;;;;;5065959;28;19916;-57
2021/12/29 10:04:48;;;;;;;;;;;6.90;99.90;;;;;;5069072;28;20719;-56
2021/12/29 10:07:17;;;;;;;;;;;7.00;99.90;;;;;;5073784;28;20332;-58
2021/12/29 10:09:44;;;;;;;;;;;7.00;99.90;;;;;;5071645;28;19916;-58
2021/12/29 10:12:17;;;;;;;;;;;7.00;99.90;;;;;;5067455;28;19916;-58
2021/12/29 10:14:46;;;;;;;;;;;7.10;99.90;;;;;;5069600;28;19964;-57
2021/12/29 10:17:12;;;;;;;;;;;7.20;99.90;;;;;;5060298;28;19916;-58
2021/12/29 10:19:37;;;;;;;;;;;7.10;99.90;;;;;;5068370;28;19920;-58
2021/12/29 10:22:03;;;;;;;;;;;7.20;99.90;;;;;;5065518;28;19971;-59
2021/12/29 10:24:28;;;;;;;;;;;7.20;99.90;;;;;;5066766;28;20478;-58
2021/12/29 10:26:55;;;;;;;;;;;7.30;99.90;;;;;;5068064;28;19924;-59
2021/12/29 10:29:21;;;;;;;;;;;7.30;99.90;;;;;;5070920;28;19924;-56
2021/12/29 10:31:51;;;;;;;;;;;7.20;99.90;;;;;;5065276;28;20018;-59
2021/12/29 10:34:19;;;;;;;;;;;7.30;99.90;;;;;;5069509;28;19923;-56
2021/12/29 10:37:05;;;;;;;;;;;7.30;99.90;;;;;;5069383;28;19924;-58
2021/12/29 10:39:33;;;;;;;;;;;7.30;99.90;;;;;;5068587;28;19917;-58
2021/12/29 10:42:05;;;;;;;;;;;7.30;99.90;;;;;;5070345;28;19920;-58
2021/12/29 10:44:35;;;;;;;;;;;7.30;99.90;;;;;;5072654;28;20368;-58
2021/12/29 10:47:02;;;;;;;;;;;7.30;99.90;;;;;;5069738;28;20344;-59
2021/12/29 10:49:28;;;;;;;;;;;7.30;99.90;;;;;;5072494;28;19916;-59
2021/12/29 10:51:56;;;;;;;;;;;7.30;99.90;;;;;;5069373;28;19926;-59
2021/12/29 10:54:24;;;;;;;;;;;7.20;99.90;;;;;;5074213;28;20015;-59
2021/12/29 10:56:57;;;;;;;;;;;7.20;99.90;;;;;;5066882;28;19924;-59
2021/12/29 10:59:25;;;;;;;;;;;7.10;99.90;;;;;;5071869;28;19927;-58
2021/12/29 11:01:51;;;;;;;;;;;7.20;99.90;;;;;;5064943;28;19991;-57
2021/12/29 11:04:18;;;;;;;;;;;7.20;99.90;;;;;;5065417;28;20003;-59
2021/12/29 11:06:46;;;;;;;;;;;7.10;99.90;;;;;;5066176;28;19932;-58
2021/12/29 11:09:13;;;;;;;;;;;7.20;99.90;;;;;;5068547;28;20481;-61
2021/12/29 11:11:42;;;;;;;;;;;7.20;99.90;;;;;;5068631;28;20035;-62
2021/12/29 11:14:26;;;;;;;;;;;7.10;99.90;;;;;;5070398;28;19917;-62
2021/12/29 11:17:00;;;;;;;;;;;7.10;99.90;;;;;;5067472;28;19956;-60
2021/12/29 11:19:25;;;;;;;;;;;7.00;99.90;;;;;;5070760;28;20003;-62
2021/12/29 11:21:51;;;;;;;;;;;7.00;99.90;;;;;;5066749;28;20099;-60
2021/12/29 11:24:20;;;;;;;;;;;7.00;99.90;;;;;;5062583;28;19917;-60
2021/12/29 11:26:46;;;;;;;;;;;7.10;99.90;;;;;;5059534;28;19967;-59
2021/12/29 11:29:13;;;;;;;;;;;7.10;99.90;;;;;;5057983;28;19920;-63
2021/12/29 11:31:43;;;;;;;;;;;7.10;99.90;;;;;;5061144;28;20709;-58
2021/12/29 11:34:13;;;;;;;;;;;7.10;99.90;;;;;;5062904;28;20269;-60
2021/12/29 11:36:38;;;;;;;;;;;7.10;99.90;;;;;;5063128;28;19959;-60
2021/12/29 11:39:04;;;;;;;;;;;7.10;99.90;;;;;;5064622;28;19948;-60
2021/12/29 11:41:30;;;;;;;;;;;7.10;99.90;;;;;;5060343;28;20304;-60
2021/12/29 11:43:55;;;;;;;;;;;7.10;99.90;;;;;;5063323;28;19920;-60
2021/12/29 11:46:24;;;;;;;;;;;7.10;99.90;;;;;;5062146;28;20354;-60
2021/12/29 11:48:52;;;;;;;;;;;7.10;99.90;;;;;;5059485;28;20320;-61
2021/12/29 11:51:39;;;;;;;;;;;7.10;99.90;;;;;;5061790;28;19963;-58
2021/12/29 11:54:13;;;;;;;;;;;7.10;99.90;;;;;;5077427;28;20003;-59
2021/12/29 11:56:40;;;;;;;;;;;7.10;99.90;;;;;;5067937;28;20005;-59
2021/12/29 11:59:05;;;;;;;;;;;7.10;99.90;;;;;;5070595;28;19916;-58
2021/12/29 12:01:31;;;;;;;;;;;7.10;99.90;;;;;;5066718;28;19923;-60
2021/12/29 12:03:58;;;;;;;;;;;7.20;99.90;;;;;;5070031;28;19923;-60
2021/12/29 12:06:25;;;;;;;;;;;7.20;99.90;;;;;;5082734;28;19920;-59
2021/12/29 12:09:22;;;;;;;;;;;7.20;99.90;;;;;;5073622;28;19920;-59
2021/12/29 12:11:48;;;;;;;;;;;7.20;99.90;;;;;;5043752;28;19916;-59
2021/12/29 12:14:19;;;;;;;;;;;7.10;99.90;;;;;;5074959;28;20306;-60
2021/12/29 12:16:49;;;;;;;;;;;7.00;99.90;;;;;;5070772;28;19924;-57
2021/12/29 12:19:19;;;;;;;;;;;7.10;99.90;;;;;;5076853;28;19989;-60
2021/12/29 12:21:45;;;;;;;;;;;7.10;99.90;;;;;;5067250;28;19969;-60
2021/12/29 12:24:10;;;;;;;;;;;7.10;99.90;;;;;;5073488;28;19916;-57
2021/12/29 12:26:47;;;;;;;;;;;7.10;99.90;;;;;;5071845;28;19934;-59
2021/12/29 12:29:14;;;;;;;;;;;7.00;99.90;;;;;;5077454;28;20692;-59
2021/12/29 12:31:39;;;;;;;;;;;7.00;99.90;;;;;;5071439;28;19916;-60
2021/12/29 12:34:07;;;;;;;;;;;7.10;99.90;;;;;;5074383;28;19923;-60
2021/12/29 12:36:33;;;;;;;;;;;7.10;99.90;;;;;;5070657;28;19962;-60
2021/12/29 12:39:05;;;;;;;;;;;7.10;99.90;;;;;;5078773;28;19963;-58
2021/12/29 12:41:36;;;;;;;;;;;7.10;99.90;;;;;;5071347;28;20010;-59
2021/12/29 12:44:03;;;;;;;;;;;7.10;99.90;;;;;;5077343;28;19989;-60
2021/12/29 12:46:30;;;;;;;;;;;7.10;99.90;;;;;;5070508;28;20438;-60
2021/12/29 12:48:56;;;;;;;;;;;7.20;99.90;;;;;;5074795;28;20010;-60
2021/12/29 12:51:22;;;;;;;;;;;7.20;99.90;;;;;;5068779;28;20006;-59
2021/12/29 12:53:48;;;;;;;;;;;7.10;99.90;;;;;;5078575;28;19923;-58
2021/12/29 12:56:17;;;;;;;;;;;7.10;99.90;;;;;;5069880;28;19912;-55
2021/12/29 12:58:45;;;;;;;;;;;7.10;99.90;;;;;;5077581;28;19947;-61
2021/12/29 13:01:18;;;;;;;;;;;7.00;99.90;;;;;;5064964;28;19917;-59
2021/12/29 13:03:44;;;;;;;;;;;7.00;99.90;;;;;;5078289;28;19912;-61
2021/12/29 13:06:11;;;;;;;;;;;7.00;99.90;;;;;;5069472;28;19920;-61
2021/12/29 13:08:37;;;;;;;;;;;7.00;99.90;;;;;;5073387;28;19916;-58
2021/12/29 13:11:04;;;;;;;;;;;7.00;99.90;;;;;;5066058;28;20622;-59
2021/12/29 13:13:32;;;;;;;;;;;7.00;99.90;;;;;;5072535;28;19963;-60
2021/12/29 13:16:05;;;;;;;;;;;7.00;99.90;;;;;;5066791;28;19944;-60
2021/12/29 13:18:31;;;;;;;;;;;6.90;99.90;;;;;;5073121;28;19916;-60
2021/12/29 13:20:58;;;;;;;;;;;6.90;99.90;;;;;;5068313;28;20392;-60
2021/12/29 13:23:24;;;;;;;;;;;6.90;99.90;;;;;;5074294;28;19916;-61
2021/12/29 13:25:50;;;;;;;;;;;6.90;99.90;;;;;;5069462;28;19927;-60
2021/12/29 13:28:17;;;;;;;;;;;6.90;99.90;;;;;;5074437;28;19916;-60
2021/12/29 13:30:44;;;;;;;;;;;6.90;99.90;;;;;;5071534;28;19963;-60
2021/12/29 13:33:11;;;;;;;;;;;6.90;99.90;;;;;;5075747;28;19916;-60
2021/12/29 13:35:37;;;;;;;;;;;6.90;99.90;;;;;;5069704;28;20119;-61
2021/12/29 13:38:05;;;;;;;;;;;6.90;99.90;;;;;;5074101;28;19916;-61
2021/12/29 13:40:38;;;;;;;;;;;7.00;99.90;;;;;;5066005;28;19920;-59
2021/12/29 13:43:08;;;;;;;;;;;7.00;99.90;;;;;;5067633;28;20018;-61
2021/12/29 13:45:34;;;;;;;;;;;7.00;99.90;;;;;;5064688;28;19917;-60
2021/12/29 13:48:00;;;;;;;;;;;7.00;99.90;;;;;;5072032;28;20500;-60
2021/12/29 13:50:26;;;;;;;;;;;7.00;99.90;;;;;;5068628;28;19916;-60
2021/12/29 13:53:06;;;;;;;;;;;6.90;99.90;;;;;;5075527;28;19916;-59
2021/12/29 13:55:42;;;;;;;;;;;6.90;99.90;;;;;;5070844;28;19951;-58
2021/12/29 13:58:08;;;;;;;;;;;6.90;99.90;;;;;;5075050;28;20023;-59
2021/12/29 14:00:34;;;;;;;;;;;6.80;99.90;;;;;;5065985;28;19977;-59
2021/12/29 14:03:00;;;;;;;;;;;6.90;99.90;;;;;;5069139;28;19927;-58
2021/12/29 14:05:44;;;;;;;;;;;6.80;99.90;;;;;;5068373;28;19955;-59